Thursday, May 25, 2017, 8:22 AM EDT

KESN, Easton / Newman Field

Location: Easton, MD, United States Lat: 38.8
Local Time: 8:22 AM EDT (12:22 GMT) Lon: -76.067
Time Zone: US/Eastern Elev: 72 ft

Show me the last for .
Show Decoded

2017-05-25 07:53 METAR KESN 251153Z 11006KT 3SM -RA BR BKN005 OVC011 15/14 A2954 =
2017-05-25 06:50 METAR KESN 251050Z 10008G15KT 2 1/2SM -RA BR OVC007 15/14 A2955 =
2017-05-25 05:55 METAR KESN 250955Z 09010G16KT 4SM -RA BR OVC007 14/13 A2957 =
2017-05-25 05:39 METAR KESN 250939Z AUTO 10008G14KT 7SM OVC007 14/13 A2958 RMK AO2 T01430131 =
2017-05-25 05:20 METAR KESN 250922Z AUTO 11008KT 7SM OVC007 14/13 A2958 RMK AO2 T01420130 =
2017-05-25 05:02 METAR KESN 250902Z AUTO 11011KT 7SM OVC007 14/13 A2959 RMK AO2 T01410129 =
2017-05-25 04:41 METAR KESN 250842Z AUTO 11012G15KT 7SM -DZ OVC007 14/13 A2960 RMK AO2 P0001
                 T01400127 =
2017-05-25 04:22 METAR KESN 250822Z AUTO 11010G15KT 10SM -RA OVC007 14/13 A2961 RMK AO2 P0001
                 T01390127 =
2017-05-25 04:02 METAR KESN 250802Z AUTO 11011G16KT 7SM -RA OVC007 14/13 A2961 RMK AO2 P0001
                 T01370125 =
2017-05-25 03:42 METAR KESN 250742Z AUTO 12009KT 4SM +RA OVC009 14/13 A2963 RMK AO2 P0020
                 T01370125 =
2017-05-25 03:21 METAR KESN 250722Z AUTO 11009G17KT 7SM +RA OVC009 14/12 A2964 RMK AO2 P0004
                 T01360124 =
2017-05-25 03:02 METAR KESN 250702Z AUTO 11012G16KT 7SM -RA OVC009 14/12 A2964 RMK AO2 T01360123
                 =
2017-05-25 02:42 METAR KESN 250642Z AUTO 11013G18KT 7SM -RA OVC009 14/13 A2965 RMK AO2 P0004
                 T01370125 =
2017-05-25 02:22 METAR KESN 250622Z AUTO 11010G17KT 10SM -RA OVC009 14/12 A2967 RMK AO2 P0001
                 T01370123 =
2017-05-25 02:02 METAR KESN 250602Z AUTO 11010G16KT 10SM -RA OVC009 14/13 A2968 RMK AO2 T01370125
                 =
2017-05-25 01:41 METAR KESN 250542Z AUTO 11011G15KT 10SM -RA OVC007 14/13 A2969 RMK AO2 P0004
                 T01370125 =
2017-05-25 01:22 METAR KESN 250522Z AUTO 11008G14KT 10SM -RA OVC007 14/13 A2970 RMK AO2 P0002
                 T01380125 =
2017-05-25 01:02 METAR KESN 250502Z AUTO 11010G14KT 7SM -RA BKN009 OVC012 14/13 A2972 RMK AO2
                 P0001 T01390126 =
2017-05-25 00:41 METAR KESN 250442Z AUTO 11008KT 7SM RA OVC009 14/13 A2974 RMK AO2 P0010
                 T01400125 =
2017-05-25 00:21 METAR KESN 250421Z AUTO 13008KT 5SM RA OVC009 14/13 A2975 RMK AO2 P0006
                 T01420125 =
2017-05-25 00:02 METAR KESN 250402Z AUTO 11007G14KT 090V150 10SM OVC009 15/12 A2975 RMK AO2
                 T01460121 =
2017-05-24 23:41 METAR KESN 250342Z AUTO 12008G19KT 10SM OVC009 15/12 A2975 RMK AO2 T01460121 =
2017-05-24 23:21 METAR KESN 250322Z AUTO 12007G17KT 10SM OVC011 15/12 A2976 RMK AO2 T01470120 =
2017-05-24 23:02 METAR KESN 250302Z AUTO 12012G19KT 10SM OVC011 15/12 A2977 RMK AO2 T01480120 =
2017-05-24 22:42 METAR KESN 250242Z AUTO 13011G17KT 10SM OVC011 15/12 A2977 RMK AO2 T01500120 =
2017-05-24 22:22 METAR KESN 250222Z AUTO 12010G16KT 10SM OVC013 15/12 A2978 RMK AO2 T01500120 =
2017-05-24 21:50 METAR KESN 250150Z 08012G15KT 10SM OVC013 15/12 A2977 =
2017-05-24 20:50 METAR KESN 250050Z 10007KT 10SM OVC015 15/12 A2979 =
2017-05-24 19:50 METAR KESN 242350Z 11007KT 10SM BKN017 OVC026 17/12 A2979 =
2017-05-24 18:50 METAR KESN 242250Z 13008G16KT 10SM BKN028 17/12 A2979 =
2017-05-24 17:50 METAR KESN 242150Z 13008KT 10SM BKN027 BKN049 18/12 A2978 =
2017-05-24 16:50 METAR KESN 242050Z 13005KT 10SM BKN033 BKN049 19/13 A2977 =
2017-05-24 14:59 METAR KESN 241859Z 14006KT 7SM SCT031 BKN040 20/13 A2977 =
2017-05-24 13:50 METAR KESN 241750Z 12006KT 7SM SCT013 BKN029 18/13 A2978 =
2017-05-24 12:50 METAR KESN 241650Z 06008KT 7SM SCT030 BKN045 19/14 A2975 =
2017-05-24 11:50 METAR KESN 241550Z 15007KT 7SM OVC017 18/14 A2979 =
2017-05-24 10:50 METAR KESN 241450Z 04007KT 7SM OVC011 17/14 A2976 =
2017-05-24 10:15 METAR KESN 241415Z 04006KT 7SM OVC011 16/14 A2977 =
2017-05-24 09:53 METAR KESN 241353Z 04006KT 7SM BKN008 OVC013 16/14 A2976 =
2017-05-24 08:50 METAR KESN 241250Z 00000KT 5SM BR OVC008 15/14 A2977 =

Support USWX by starting your Amazon purchase here.